Time;durP1;ratioP1;P1;durP2;ratioP2;P2;SDS_P1;SDS_P2;PMS_P1;PMS_P2;Temp;Humidity;BMP_temperature;BMP_pressure;BME280_temperature;BME280_humidity;BME280_pressure;Samples;Min_cycle;Max_cycle;Signal;HPM_P1;HPM_P2
2023/03/19 00:01:45;;;;;;;;;;;;;;;-144.98;100.00;62585.19;4916551;29;19925;-75
2023/03/19 00:04:49;;;;;;;;;;;;;;;-144.98;100.00;62585.19;4917137;29;19926;-75
2023/03/19 00:07:52;;;;;;;;;;;;;;;-144.98;100.00;62585.19;4916931;29;19926;-75
2023/03/19 00:10:55;;;;;;;;;;;;;;;-144.98;100.00;62585.19;4916935;29;20022;-75
2023/03/19 00:13:58;;;;;;;;;;;;;;;-144.98;100.00;62585.19;4917316;29;19983;-74
2023/03/19 00:17:01;;;;;;;;;;;;;;;-144.98;100.00;62585.19;4917029;29;19926;-74
2023/03/19 00:20:05;;;;;;;;;;;;;;;-144.98;100.00;62585.19;4916969;29;19962;-74
2023/03/19 00:23:08;;;;;;;;;;;;;;;-144.98;100.00;62585.19;4916808;29;19925;-74
2023/03/19 00:26:11;;;;;;;;;;;;;;;-144.98;100.00;62585.19;4916947;29;20284;-74
2023/03/19 00:29:14;;;;;;;;;;;;;;;-144.98;100.00;62585.19;4905195;29;19930;-75
2023/03/19 00:32:18;;;;;;;;;;;;;;;-144.98;100.00;62585.19;4916895;29;19926;-74
2023/03/19 00:35:20;;;;;;;;;;;;;;;-144.98;100.00;62585.19;4902887;29;20288;-75
2023/03/19 00:38:23;;;;;;;;;;;;;;;-144.98;100.00;62585.19;4916813;29;19975;-75
2023/03/19 00:41:27;;;;;;;;;;;;;;;-144.98;100.00;62585.19;4917011;29;20390;-75
2023/03/19 00:44:30;;;;;;;;;;;;;;;-144.98;100.00;62585.19;4916684;29;19926;-75
2023/03/19 00:47:33;;;;;;;;;;;;;;;-144.98;100.00;62585.19;4920018;29;20303;-75
2023/03/19 00:50:37;;;;;;;;;;;;;;;-144.98;100.00;62585.19;4920229;29;19978;-75
2023/03/19 00:53:41;;;;;;;;;;;;;;;-144.98;100.00;62585.19;4920262;29;20299;-75
2023/03/19 00:56:44;;;;;;;;;;;;;;;-144.98;100.00;62585.19;4908420;29;20398;-75
2023/03/19 00:59:47;;;;;;;;;;;;;;;-144.98;100.00;62585.19;4920164;29;19926;-75
2023/03/19 01:02:50;;;;;;;;;;;;;;;-144.98;100.00;62585.19;4920164;29;19957;-76
2023/03/19 01:05:53;;;;;;;;;;;;;;;-144.98;100.00;62585.19;4920040;29;19966;-76
2023/03/19 01:08:56;;;;;;;;;;;;;;;-144.98;100.00;62585.19;4919019;29;19966;-76
2023/03/19 01:12:03;;;;;;;;;;;;;;;-144.98;100.00;62585.19;4920015;29;19926;-76
2023/03/19 01:15:07;;;;;;;;;;;;;;;-144.98;100.00;62585.19;4908312;29;19926;-76
2023/03/19 01:18:11;;;;;;;;;;;;;;;-144.98;100.00;62585.19;4920020;29;19926;-75
2023/03/19 01:21:15;;;;;;;;;;;;;;;-144.98;100.00;62585.19;4919914;29;19967;-75
2023/03/19 01:24:22;;;;;;;;;;;;;;;-144.98;100.00;62585.19;4918929;29;20199;-75
2023/03/19 01:27:29;;;;;;;;;;;;;;;-144.98;100.00;62585.19;4903881;29;19979;-76
2023/03/19 01:30:33;;;;;;;;;;;;;;;-144.98;100.00;62585.19;4907773;29;20013;-75
2023/03/19 01:33:41;;;;;;;;;;;;;;;-144.98;100.00;62585.19;4919634;29;19926;-76
2023/03/19 01:36:49;;;;;;;;;;;;;;;-144.98;100.00;62585.19;4919559;29;19942;-76
2023/03/19 01:39:57;;;;;;;;;;;;;;;-144.98;100.00;62585.19;4907961;29;19973;-76
2023/03/19 01:43:12;;;;;;;;;;;;;;;-144.98;100.00;62585.19;4908013;29;19927;-75
2023/03/19 01:46:42;;;;;;;;;;;;;;;-144.98;100.00;62585.19;4907573;29;20336;-75
2023/03/19 01:49:57;;;;;;;;;;;;;;;-144.98;100.00;62585.19;4907659;29;19930;-75
2023/03/19 01:53:00;;;;;;;;;;;;;;;-144.98;100.00;62585.19;4919287;29;19931;-74
2023/03/19 01:56:15;;;;;;;;;;;;;;;-144.98;100.00;62585.19;4907573;29;19956;-75
2023/03/19 01:59:33;;;;;;;;;;;;;;;-144.98;100.00;62585.19;4906750;29;19930;-74
2023/03/19 02:02:53;;;;;;;;;;;;;;;-144.98;100.00;62585.19;4918620;29;19930;-76
2023/03/19 02:06:29;;;;;;;;;;;;;;;-144.98;100.00;62585.19;4912743;29;19930;-76
2023/03/19 02:09:32;;;;;;;;;;;;;;;-144.98;100.00;62585.19;4918034;29;20435;-75
2023/03/19 02:12:36;;;;;;;;;;;;;;;-144.98;100.00;62585.19;4903624;29;19944;-75
2023/03/19 02:15:39;;;;;;;;;;;;;;;-144.98;100.00;62585.19;4918663;29;20489;-75
2023/03/19 02:18:43;;;;;;;;;;;;;;;-144.98;100.00;62585.19;4907143;29;19968;-76
2023/03/19 02:21:46;;;;;;;;;;;;;;;-144.98;100.00;62585.19;4918824;29;19975;-76
2023/03/19 02:24:50;;;;;;;;;;;;;;;-144.98;100.00;62585.19;4917889;29;20438;-76
2023/03/19 02:27:56;;;;;;;;;;;;;;;-144.98;100.00;62585.19;4907231;29;19926;-76
2023/03/19 02:30:59;;;;;;;;;;;;;;;-144.98;100.00;62585.19;4918469;29;19934;-76
2023/03/19 02:34:04;;;;;;;;;;;;;;;-144.98;100.00;62585.19;4918529;29;19926;-76
2023/03/19 02:37:16;;;;;;;;;;;;;;;-144.98;100.00;62585.19;4917693;29;19925;-76
2023/03/19 02:40:25;;;;;;;;;;;;;;;-144.98;100.00;62585.19;4906947;29;19950;-75
2023/03/19 02:43:29;;;;;;;;;;;;;;;-144.98;100.00;62585.19;4918392;29;19975;-75
2023/03/19 02:46:33;;;;;;;;;;;;;;;-144.98;100.00;62585.19;4917486;29;20328;-76
2023/03/19 02:49:36;;;;;;;;;;;;;;;-144.98;100.00;62585.19;4903343;29;20046;-74
2023/03/19 02:52:40;;;;;;;;;;;;;;;-144.98;100.00;62585.19;4917321;29;20009;-76
2023/03/19 02:55:43;;;;;;;;;;;;;;;-144.98;100.00;62585.19;4917282;29;19925;-76
2023/03/19 02:58:46;;;;;;;;;;;;;;;-144.98;100.00;62585.19;4917964;29;19975;-76
2023/03/19 03:01:49;;;;;;;;;;;;;;;-144.98;100.00;62585.19;4918041;29;19930;-77
2023/03/19 03:04:53;;;;;;;;;;;;;;;-144.98;100.00;62585.19;4918030;29;19969;-75
2023/03/19 03:07:55;;;;;;;;;;;;;;;-144.98;100.00;62585.19;4917967;29;19935;-75
2023/03/19 03:10:58;;;;;;;;;;;;;;;-144.98;100.00;62585.19;4916936;29;19946;-75
2023/03/19 03:14:01;;;;;;;;;;;;;;;-144.98;100.00;62585.19;4906320;29;19974;-75
2023/03/19 03:17:05;;;;;;;;;;;;;;;-144.98;100.00;62585.19;4917799;29;19926;-75
2023/03/19 03:20:10;;;;;;;;;;;;;;;-144.98;100.00;62585.19;4916970;29;20287;-76
2023/03/19 03:23:13;;;;;;;;;;;;;;;-144.98;100.00;62585.19;4917668;29;20007;-76
2023/03/19 03:26:16;;;;;;;;;;;;;;;-144.98;100.00;62585.19;4916796;29;20398;-75
2023/03/19 03:29:20;;;;;;;;;;;;;;;-144.98;100.00;62585.19;4916762;29;19981;-76
2023/03/19 03:32:23;;;;;;;;;;;;;;;-144.98;100.00;62585.19;4917583;29;19926;-75
2023/03/19 03:35:26;;;;;;;;;;;;;;;-144.98;100.00;62585.19;4917523;29;20075;-76
2023/03/19 03:38:31;;;;;;;;;;;;;;;-144.98;100.00;62585.19;4917381;29;20018;-75
2023/03/19 03:41:34;;;;;;;;;;;;;;;-144.98;100.00;62585.19;4905639;29;19925;-75
2023/03/19 03:44:38;;;;;;;;;;;;;;;-144.98;100.00;62585.19;4916398;29;19941;-75
2023/03/19 03:47:41;;;;;;;;;;;;;;;-144.98;100.00;62585.19;4916458;29;19962;-76
2023/03/19 03:50:44;;;;;;;;;;;;;;;-144.98;100.00;62585.19;4905425;29;19990;-76
2023/03/19 03:53:52;;;;;;;;;;;;;;;-144.98;100.00;62585.19;4905321;29;19931;-76
2023/03/19 03:56:55;;;;;;;;;;;;;;;-144.98;100.00;62585.19;4905453;29;20467;-77
2023/03/19 03:59:58;;;;;;;;;;;;;;;-144.98;100.00;62585.19;4905259;29;20344;-77
2023/03/19 04:03:01;;;;;;;;;;;;;;;-144.98;100.00;62585.19;4905676;29;20435;-76
2023/03/19 04:06:04;;;;;;;;;;;;;;;-144.98;100.00;62585.19;4905643;29;19926;-76
2023/03/19 04:09:08;;;;;;;;;;;;;;;-144.98;100.00;62585.19;4904992;29;20014;-76
2023/03/19 04:12:12;;;;;;;;;;;;;;;-144.98;100.00;62585.19;4905305;29;19926;-76
2023/03/19 04:15:16;;;;;;;;;;;;;;;-144.98;100.00;62585.19;4916931;29;19951;-77
2023/03/19 04:18:24;;;;;;;;;;;;;;;-144.98;100.00;62585.19;4905690;29;19967;-75
2023/03/19 04:21:28;;;;;;;;;;;;;;;-144.98;100.00;62585.19;4918337;29;19946;-75
2023/03/19 04:24:32;;;;;;;;;;;;;;;-144.98;100.00;62585.19;4920810;29;19926;-75
2023/03/19 04:27:36;;;;;;;;;;;;;;;-144.98;100.00;62585.19;4909028;29;19926;-76
2023/03/19 04:30:39;;;;;;;;;;;;;;;-144.98;100.00;62585.19;4908829;29;19977;-76
2023/03/19 04:33:43;;;;;;;;;;;;;;;-144.98;100.00;62585.19;4920172;29;19925;-76
2023/03/19 04:36:47;;;;;;;;;;;;;;;-144.98;100.00;62585.19;4920717;29;19927;-75
2023/03/19 04:39:50;;;;;;;;;;;;;;;-144.98;100.00;62585.19;4920023;29;19926;-76
2023/03/19 04:42:53;;;;;;;;;;;;;;;-144.98;100.00;62585.19;4908777;29;19926;-76
2023/03/19 04:46:10;;;;;;;;;;;;;;;-144.98;100.00;62585.19;4919871;29;19977;-76
2023/03/19 04:49:13;;;;;;;;;;;;;;;-144.98;100.00;62585.19;4920228;29;19977;-76
2023/03/19 04:52:16;;;;;;;;;;;;;;;-144.98;100.00;62585.19;4920232;29;20408;-76
2023/03/19 04:55:19;;;;;;;;;;;;;;;-144.98;100.00;62585.19;4908614;29;19978;-75
2023/03/19 04:58:30;;;;;;;;;;;;;;;-144.98;100.00;62585.19;4908591;29;19975;-76
2023/03/19 05:01:37;;;;;;;;;;;;;;;-144.98;100.00;62585.19;4908582;29;19927;-76
2023/03/19 05:04:44;;;;;;;;;;;;;;;-144.98;100.00;62585.19;4908385;29;19930;-76
2023/03/19 05:07:49;;;;;;;;;;;;;;;-144.98;100.00;62585.19;4908363;29;19983;-76
2023/03/19 05:10:52;;;;;;;;;;;;;;;-144.98;100.00;62585.19;4908234;29;20385;-75
2023/03/19 05:13:56;;;;;;;;;;;;;;;-144.98;100.00;62585.19;4908248;29;19926;-76
2023/03/19 05:16:59;;;;;;;;;;;;;;;-144.98;100.00;62585.19;4918835;29;19971;-76
2023/03/19 05:20:08;;;;;;;;;;;;;;;-144.98;100.00;62585.19;4908476;29;20010;-76
2023/03/19 05:23:12;;;;;;;;;;;;;;;-144.98;100.00;62585.19;4919747;29;19926;-77
2023/03/19 05:26:38;;;;;;;;;;;;;;;-144.98;100.00;62585.19;4919674;29;19975;-77
2023/03/19 05:30:33;;;;;;;;;;;;;;;-144.98;100.00;62585.19;4919469;29;19930;-76
2023/03/19 05:33:50;;;;;;;;;;;;;;;-144.98;100.00;62585.19;4907739;29;20026;-77
2023/03/19 05:36:53;;;;;;;;;;;;;;;-144.98;100.00;62585.19;4908100;29;19930;-77
2023/03/19 05:39:56;;;;;;;;;;;;;;;-144.98;100.00;62585.19;4919502;29;20010;-76
2023/03/19 05:43:00;;;;;;;;;;;;;;;-144.98;100.00;62585.19;4918348;29;19967;-76
2023/03/19 05:46:05;;;;;;;;;;;;;;;-144.98;100.00;62585.19;4907864;29;19926;-76
2023/03/19 05:49:09;;;;;;;;;;;;;;;-144.98;100.00;62585.19;4907659;29;19946;-76
2023/03/19 05:52:13;;;;;;;;;;;;;;;-144.98;100.00;62585.19;4918653;29;20022;-76
2023/03/19 05:55:16;;;;;;;;;;;;;;;-144.98;100.00;62585.19;4906702;29;20395;-76
2023/03/19 05:58:22;;;;;;;;;;;;;;;-144.98;100.00;62585.19;4914049;29;20344;-77
2023/03/19 06:01:26;;;;;;;;;;;;;;;-144.98;100.00;62585.19;4884832;29;19929;-77
2023/03/19 06:04:30;;;;;;;;;;;;;;;-144.98;100.00;62585.19;4918585;29;20009;-77
2023/03/19 06:07:33;;;;;;;;;;;;;;;-144.98;100.00;62585.19;4907189;29;19925;-77
2023/03/19 06:10:37;;;;;;;;;;;;;;;-144.98;100.00;62585.19;4907221;29;20442;-76
2023/03/19 06:13:45;;;;;;;;;;;;;;;-144.98;100.00;62585.19;4918236;29;19978;-76
2023/03/19 06:16:52;;;;;;;;;;;;;;;-144.98;100.00;62585.19;4896606;29;20431;-76
2023/03/19 06:19:55;;;;;;;;;;;;;;;-144.98;100.00;62585.19;4907411;29;19926;-76
2023/03/19 06:22:58;;;;;;;;;;;;;;;-144.98;100.00;62585.19;4918689;29;19927;-76
2023/03/19 06:26:01;;;;;;;;;;;;;;;-144.98;100.00;62585.19;4906936;29;19926;-76
2023/03/19 06:29:10;;;;;;;;;;;;;;;-144.98;100.00;62585.19;4906914;29;20398;-76
2023/03/19 06:32:15;;;;;;;;;;;;;;;-144.98;100.00;62585.19;4906826;29;20056;-76
2023/03/19 06:35:22;;;;;;;;;;;;;;;-144.98;100.00;62585.19;4917765;29;19930;-76
2023/03/19 06:38:26;;;;;;;;;;;;;;;-144.98;100.00;62585.19;4905982;29;19926;-75
2023/03/19 06:41:29;;;;;;;;;;;;;;;-144.98;100.00;62585.19;4918383;29;20027;-75
2023/03/19 06:44:42;;;;;;;;;;;;;;;-144.98;100.00;62585.19;4914078;29;19934;-75
2023/03/19 06:47:46;;;;;;;;;;;;;;;-144.98;100.00;62585.19;4905508;29;19926;-75
2023/03/19 06:50:49;;;;;;;;;;;;;;;-144.98;100.00;62585.19;4918161;29;19930;-75
2023/03/19 06:53:53;;;;;;;;;;;;;;;-144.98;100.00;62585.19;4918224;29;20431;-75
2023/03/19 06:56:57;;;;;;;;;;;;;;;-144.98;100.00;62585.19;4918498;29;19978;-75
2023/03/19 07:00:00;;;;;;;;;;;;;;;-144.98;100.00;62585.19;4905966;29;19926;-78
2023/03/19 07:03:04;;;;;;;;;;;;;;;-144.98;100.00;62585.19;4916946;29;19930;-77
2023/03/19 07:06:08;;;;;;;;;;;;;;;-144.98;100.00;62585.19;4918021;29;19941;-77
2023/03/19 07:09:10;;;;;;;;;;;;;;;-144.98;100.00;62585.19;4911187;29;20407;-77
2023/03/19 07:12:14;;;;;;;;;;;;;;;-144.98;100.00;62585.19;4917868;29;20443;-77
2023/03/19 07:15:19;;;;;;;;;;;;;;;-144.98;100.00;62585.19;4917754;29;20331;-76
2023/03/19 07:18:22;;;;;;;;;;;;;;;-144.98;100.00;62585.19;4912527;29;19965;-76
2023/03/19 07:21:24;;;;;;;;;;;;;;;-144.98;100.00;62585.19;4917355;29;19926;-76
2023/03/19 07:24:27;;;;;;;;;;;;;;;-144.98;100.00;62585.19;4917513;29;19926;-77
2023/03/19 07:27:30;;;;;;;;;;;;;;;-144.98;100.00;62585.19;4917799;29;19926;-76
2023/03/19 07:30:34;;;;;;;;;;;;;;;-144.98;100.00;62585.19;4916788;29;20303;-76
2023/03/19 07:33:37;;;;;;;;;;;;;;;-144.98;100.00;62585.19;4917504;29;20300;-76
2023/03/19 07:36:40;;;;;;;;;;;;;;;-144.98;100.00;62585.19;4917388;29;19926;-76
2023/03/19 07:39:43;;;;;;;;;;;;;;;-144.98;100.00;62585.19;4917371;29;19926;-75
2023/03/19 07:42:46;;;;;;;;;;;;;;;-144.98;100.00;62585.19;4917691;29;19935;-76
2023/03/19 07:45:49;;;;;;;;;;;;;;;-144.98;100.00;62585.19;4916441;29;19930;-76
2023/03/19 07:48:53;;;;;;;;;;;;;;;-144.98;100.00;62585.19;4917286;29;20360;-77
2023/03/19 07:51:56;;;;;;;;;;;;;;;-144.98;100.00;62585.19;4917110;29;19934;-76
2023/03/19 07:55:00;;;;;;;;;;;;;;;-144.98;100.00;62585.19;4916194;29;20325;-76
2023/03/19 07:58:03;;;;;;;;;;;;;;;-144.98;100.00;62585.19;4917069;29;19943;-75
2023/03/19 08:01:07;;;;;;;;;;;;;;;-144.98;100.00;62585.19;4916094;29;19926;-76
2023/03/19 08:04:12;;;;;;;;;;;;;;;-144.98;100.00;62585.19;4917102;29;19926;-75
2023/03/19 08:07:15;;;;;;;;;;;;;;;-144.98;100.00;62585.19;4917207;29;19978;-75
2023/03/19 08:10:22;;;;;;;;;;;;;;;-144.98;100.00;62585.19;4917002;29;19945;-75
2023/03/19 08:13:25;;;;;;;;;;;;;;;-144.98;100.00;62585.19;4916958;29;19926;-77
2023/03/19 08:16:28;;;;;;;;;;;;;;;-144.98;100.00;62585.19;4917008;29;20399;-76
2023/03/19 08:19:31;;;;;;;;;;;;;;;-144.98;100.00;62585.19;4916996;29;19926;-74
2023/03/19 08:22:35;;;;;;;;;;;;;;;-144.98;100.00;62585.19;4916968;29;19926;-76
2023/03/19 08:25:38;;;;;;;;;;;;;;;-144.98;100.00;62585.19;4916829;29;19926;-76
2023/03/19 08:28:41;;;;;;;;;;;;;;;-144.98;100.00;62585.19;4916881;29;19926;-74
2023/03/19 08:31:45;;;;;;;;;;;;;;;-144.98;100.00;62585.19;4916775;29;19930;-75
2023/03/19 08:34:48;;;;;;;;;;;;;;;-144.98;100.00;62585.19;4916888;29;19967;-76
2023/03/19 08:37:51;;;;;;;;;;;;;;;-144.98;100.00;62585.19;4916810;29;19926;-74
2023/03/19 08:41:03;;;;;;;;;;;;;;;-144.98;100.00;62585.19;4917071;29;19961;-75
2023/03/19 08:44:09;;;;;;;;;;;;;;;-144.98;100.00;62585.19;4916813;29;19975;-74
2023/03/19 08:47:16;;;;;;;;;;;;;;;-144.98;100.00;62585.19;4916655;29;19990;-74
2023/03/19 08:50:29;;;;;;;;;;;;;;;-144.98;100.00;62585.19;4916343;29;19979;-73
2023/03/19 08:53:39;;;;;;;;;;;;;;;-144.98;100.00;62585.19;4916830;29;19933;-73
2023/03/19 08:56:41;;;;;;;;;;;;;;;-144.98;100.00;62585.19;4916675;29;19926;-75
2023/03/19 08:59:45;;;;;;;;;;;;;;;-144.98;100.00;62585.19;4916512;29;19947;-74
2023/03/19 09:02:51;;;;;;;;;;;;;;;-144.98;100.00;62585.19;4916573;29;19926;-74
2023/03/19 09:06:01;;;;;;;;;;;;;;;-144.98;100.00;62585.19;4916487;29;20283;-74
2023/03/19 09:09:05;;;;;;;;;;;;;;;-144.98;100.00;62585.19;4920091;29;19926;-74
2023/03/19 09:12:11;;;;;;;;;;;;;;;-144.98;100.00;62585.19;4920119;29;19926;-74
2023/03/19 09:15:14;;;;;;;;;;;;;;;-144.98;100.00;62585.19;4919873;29;19926;-74
2023/03/19 09:18:19;;;;;;;;;;;;;;;-144.98;100.00;62585.19;4920009;29;20018;-74
2023/03/19 09:21:21;;;;;;;;;;;;;;;-144.98;100.00;62585.19;4919893;29;20287;-75
2023/03/19 09:24:25;;;;;;;;;;;;;;;-144.98;100.00;62585.19;4919994;29;19926;-75
2023/03/19 09:27:29;;;;;;;;;;;;;;;-144.98;100.00;62585.19;4919817;29;19947;-75
2023/03/19 09:30:33;;;;;;;;;;;;;;;-144.98;100.00;62585.19;4919041;29;19971;-78
2023/03/19 09:33:38;;;;;;;;;;;;;;;-144.98;100.00;62585.19;4907735;29;19925;-74
2023/03/19 09:36:45;;;;;;;;;;;;;;;-144.98;100.00;62585.19;4919758;29;19998;-72
2023/03/19 09:39:50;;;;;;;;;;;;;;;-144.98;100.00;62585.19;4918664;29;20343;-73
2023/03/19 09:42:55;;;;;;;;;;;;;;;-144.98;100.00;62585.19;4919323;29;19927;-74
2023/03/19 09:46:09;;;;;;;;;;;;;;;-144.98;100.00;62585.19;4918714;29;19926;-75
2023/03/19 09:49:21;;;;;;;;;;;;;;;-144.98;100.00;62585.19;4919236;29;19926;-75
2023/03/19 09:52:47;;;;;;;;;;;;;;;-144.98;100.00;62585.19;4919316;29;20436;-74
2023/03/19 09:56:18;;;;;;;;;;;;;;;-144.98;100.00;62585.19;4919474;29;19926;-79
2023/03/19 09:59:31;;;;;;;;;;;;;;;-144.98;100.00;62585.19;4919302;29;19942;-75
2023/03/19 10:03:18;;;;;;;;;;;;;;;-144.98;100.00;62585.19;4919298;29;19929;-76
2023/03/19 10:06:26;;;;;;;;;;;;;;;-144.98;100.00;62585.19;4919183;29;20340;-75
2023/03/19 10:09:33;;;;;;;;;;;;;;;-144.98;100.00;62585.19;4918992;29;19930;-72
2023/03/19 10:12:53;;;;;;;;;;;;;;;-144.98;100.00;62585.19;4908873;29;20435;-72
2023/03/19 10:16:00;;;;;;;;;;;;;;;-144.98;100.00;62585.19;4919281;29;19929;-75
2023/03/19 10:19:38;;;;;;;;;;;;;;;-144.98;100.00;62585.19;4917904;29;19926;-75
2023/03/19 10:22:46;;;;;;;;;;;;;;;-144.98;100.00;62585.19;4918736;29;19930;-79
2023/03/19 10:25:52;;;;;;;;;;;;;;;-144.98;100.00;62585.19;4918779;29;19948;-75
2023/03/19 10:28:58;;;;;;;;;;;;;;;-144.98;100.00;62585.19;4918836;29;19926;-74
2023/03/19 10:32:11;;;;;;;;;;;;;;;-144.98;100.00;62585.19;4918975;29;19930;-74
2023/03/19 10:35:20;;;;;;;;;;;;;;;-144.98;100.00;62585.19;4918641;29;20355;-73
2023/03/19 10:38:24;;;;;;;;;;;;;;;-144.98;100.00;62585.19;4918596;29;20021;-75
2023/03/19 10:41:34;;;;;;;;;;;;;;;-144.98;100.00;62585.19;4918539;29;19926;-76
2023/03/19 10:44:48;;;;;;;;;;;;;;;-144.98;100.00;62585.19;4918630;29;20382;-75
2023/03/19 10:47:56;;;;;;;;;;;;;;;-144.98;100.00;62585.19;4918640;29;19937;-75
2023/03/19 10:51:02;;;;;;;;;;;;;;;-144.98;100.00;62585.19;4917974;29;19951;-76
2023/03/19 10:54:17;;;;;;;;;;;;;;;-144.98;100.00;62585.19;4918208;29;20414;-75
2023/03/19 10:57:22;;;;;;;;;;;;;;;-144.98;100.00;62585.19;4918227;29;19926;-75
2023/03/19 11:00:27;;;;;;;;;;;;;;;-144.98;100.00;62585.19;4906675;29;19925;-76
2023/03/19 11:03:30;;;;;;;;;;;;;;;-144.98;100.00;62585.19;4918037;29;20387;-76
2023/03/19 11:06:35;;;;;;;;;;;;;;;-144.98;100.00;62585.19;4918416;29;19941;-76
2023/03/19 11:09:40;;;;;;;;;;;;;;;-144.98;100.00;62585.19;4918169;29;19926;-73
2023/03/19 11:12:50;;;;;;;;;;;;;;;-144.98;100.00;62585.19;4917807;29;20010;-75
2023/03/19 11:15:56;;;;;;;;;;;;;;;-144.98;100.00;62585.19;4917924;29;19990;-74
2023/03/19 11:19:00;;;;;;;;;;;;;;;-144.98;100.00;62585.19;4917989;29;20386;-76
2023/03/19 11:22:06;;;;;;;;;;;;;;;-144.98;100.00;62585.19;4917623;29;20021;-74
2023/03/19 11:25:24;;;;;;;;;;;;;;;-144.98;100.00;62585.19;4917606;29;20343;-74
2023/03/19 11:28:32;;;;;;;;;;;;;;;-144.98;100.00;62585.19;4917610;29;20390;-73
2023/03/19 11:32:04;;;;;;;;;;;;;;;-144.98;100.00;62585.19;4917188;29;19967;-74
2023/03/19 11:35:11;;;;;;;;;;;;;;;-144.98;100.00;62585.19;4893057;29;19931;-73
2023/03/19 11:38:33;;;;;;;;;;;;;;;-144.98;100.00;62585.19;4917766;29;19966;-74
2023/03/19 11:41:36;;;;;;;;;;;;;;;-144.98;100.00;62585.19;4917211;29;19971;-75
2023/03/19 11:44:41;;;;;;;;;;;;;;;-144.98;100.00;62585.19;4916475;29;19942;-73
2023/03/19 11:48:03;;;;;;;;;;;;;;;-144.98;100.00;62585.19;4917296;29;20387;-74
2023/03/19 11:51:12;;;;;;;;;;;;;;;-144.98;100.00;62585.19;4917059;29;19926;-74
2023/03/19 11:54:34;;;;;;;;;;;;;;;-144.98;100.00;62585.19;4917231;29;19926;-73
2023/03/19 11:57:45;;;;;;;;;;;;;;;-144.98;100.00;62585.19;4917080;29;19926;-75
2023/03/19 12:01:05;;;;;;;;;;;;;;;-144.98;100.00;62585.19;4917419;29;20379;-75
2023/03/19 12:04:15;;;;;;;;;;;;;;;-144.98;100.00;62585.19;4917350;29;19926;-77
2023/03/19 12:07:47;;;;;;;;;;;;;;;-144.98;100.00;62585.19;4917187;29;19971;-75
2023/03/19 12:11:08;;;;;;;;;;;;;;;-144.98;100.00;62585.19;4891493;29;19994;-74
2023/03/19 12:14:18;;;;;;;;;;;;;;;-144.98;100.00;62585.19;4917178;29;20464;-72
2023/03/19 12:17:42;;;;;;;;;;;;;;;-144.98;100.00;62585.19;4917249;29;19930;-72
2023/03/19 12:20:51;;;;;;;;;;;;;;;-144.98;100.00;62585.19;4916960;29;19969;-71
2023/03/19 12:23:55;;;;;;;;;;;;;;;-144.98;100.00;62585.19;4916071;29;19926;-72
2023/03/19 12:27:10;;;;;;;;;;;;;;;-144.98;100.00;62585.19;4917009;29;19926;-72
2023/03/19 12:30:40;;;;;;;;;;;;;;;-144.98;100.00;62585.19;4915685;29;19979;-73
2023/03/19 12:33:43;;;;;;;;;;;;;;;-144.98;100.00;62585.19;4904995;29;20442;-72
2023/03/19 12:36:57;;;;;;;;;;;;;;;-144.98;100.00;62585.19;4916771;29;19981;-71
2023/03/19 12:40:11;;;;;;;;;;;;;;;-144.98;100.00;62585.19;4916805;29;19925;-72
2023/03/19 12:43:22;;;;;;;;;;;;;;;-144.98;100.00;62585.19;4918062;29;19926;-71
2023/03/19 12:46:58;;;;;;;;;;;;;;;-144.98;100.00;62585.19;4919178;29;19925;-70
2023/03/19 12:50:07;;;;;;;;;;;;;;;-144.98;100.00;62585.19;4908350;29;19930;-71
2023/03/19 12:53:17;;;;;;;;;;;;;;;-144.98;100.00;62585.19;4918765;29;19979;-72
2023/03/19 12:56:23;;;;;;;;;;;;;;;-144.98;100.00;62585.19;4919081;29;19967;-72
2023/03/19 12:59:31;;;;;;;;;;;;;;;-144.98;100.00;62585.19;4918950;29;19926;-73
2023/03/19 13:02:44;;;;;;;;;;;;;;;-144.98;100.00;62585.19;4918242;29;19942;-72
2023/03/19 13:05:51;;;;;;;;;;;;;;;-144.98;100.00;62585.19;4919161;29;19926;-72
2023/03/19 13:08:58;;;;;;;;;;;;;;;-144.98;100.00;62585.19;4919294;29;20427;-73
2023/03/19 13:12:19;;;;;;;;;;;;;;;-144.98;100.00;62585.19;4918904;29;20451;-72
2023/03/19 13:15:31;;;;;;;;;;;;;;;-144.98;100.00;62585.19;4918965;29;19942;-72
2023/03/19 13:18:40;;;;;;;;;;;;;;;-144.98;100.00;62585.19;4918676;29;20318;-71
2023/03/19 13:21:45;;;;;;;;;;;;;;;-144.98;100.00;62585.19;4918709;29;20010;-71
2023/03/19 13:24:49;;;;;;;;;;;;;;;-144.98;100.00;62585.19;4918660;29;19935;-71
2023/03/19 13:27:54;;;;;;;;;;;;;;;-144.98;100.00;62585.19;4918719;29;19941;-72
2023/03/19 13:31:16;;;;;;;;;;;;;;;-144.98;100.00;62585.19;4918545;29;20019;-72
2023/03/19 13:34:23;;;;;;;;;;;;;;;-144.98;100.00;62585.19;4918562;29;20001;-72
2023/03/19 13:37:26;;;;;;;;;;;;;;;-144.98;100.00;62585.19;4918509;29;19967;-70
2023/03/19 13:40:41;;;;;;;;;;;;;;;-144.98;100.00;62585.19;4906852;29;20340;-69
2023/03/19 13:43:51;;;;;;;;;;;;;;;-144.98;100.00;62585.19;4906641;29;20036;-71
2023/03/19 13:46:56;;;;;;;;;;;;;;;-144.98;100.00;62585.19;4905793;29;19929;-68
2023/03/19 13:50:18;;;;;;;;;;;;;;;-144.98;100.00;62585.19;4918125;29;19930;-67
2023/03/19 13:53:44;;;;;;;;;;;;;;;;;;5110750;27;19952;-67
2023/03/19 13:56:47;;;;;;;;;;;;;;;;;;5111141;28;19919;-67
2023/03/19 13:59:52;;;;;;;;;;;;;;;;;;5111134;28;19919;-71
2023/03/19 14:02:55;;;;;;;;;;;;;;;;;;5110864;28;19999;-71
2023/03/19 14:05:59;;;;;;;;;;;;;;;;;;5110958;28;20092;-71
2023/03/19 14:09:05;;;;;;;;;;;;;;;;;;5134184;27;20383;-71
2023/03/19 14:12:13;;;;;;;;;;;;;;;;;;5110930;28;19973;-71
2023/03/19 14:15:16;;;;;;;;;;;;;;;;;;5110931;28;19920;-71
2023/03/19 14:18:19;;;;;;;;;;;;;;;;;;5110818;28;19977;-71
2023/03/19 14:21:23;;;;;;;;;;;;;;;;;;5110779;28;19933;-70
2023/03/19 14:24:28;;;;;;;;;;;;;;;;;;5090353;28;20331;-71
2023/03/19 14:27:31;;;;;;;;;;;;;;;;;;5090212;28;19966;-71
2023/03/19 14:30:34;;;;;;;;;;;;;;;;;;5089355;28;19919;-73
2023/03/19 14:33:38;;;;;;;;;;;;;;;;;;5090149;28;19981;-71
2023/03/19 14:36:41;;;;;;;;;;;;;;;;;;5090041;28;19965;-70
2023/03/19 14:39:44;;;;;;;;;;;;;;;;;;5090102;28;19919;-71
2023/03/19 14:42:47;;;;;;;;;;;;;;;;;;5088036;28;19920;-72
2023/03/19 14:45:50;;;;;;;;;;;;;;;;;;5089405;28;19923;-73
2023/03/19 14:48:52;;;;;;;;;;;;;;;;;;5089858;28;19919;-71
2023/03/19 14:51:55;;;;;;;;;;;;;;;;;;5089509;28;20314;-74
2023/03/19 14:54:59;;;;;;;;;;;;;;;;;;5090021;28;19924;-73
2023/03/19 14:58:03;;;;;;;;;;;;;;;;;;5089545;28;20005;-74
2023/03/19 15:01:06;;;;;;;;;;;;;;;;;;5077104;28;19919;-74
2023/03/19 15:04:09;;;;;;;;;;;;;;;;;;5080714;28;19919;-72
2023/03/19 15:07:16;;;;;;;;;;;;;;;;;;5076272;28;19920;-72
2023/03/19 15:10:19;;;;;;;;;;;;;;;;;;5075949;28;19919;-71
2023/03/19 15:13:21;;;;;;;;;;;;;;;;;;5075751;28;19927;-71
2023/03/19 15:16:24;;;;;;;;;;;;;;;;;;5075945;28;20284;-72
2023/03/19 15:19:27;;;;;;;;;;;;;;;;;;5076082;28;20296;-71
2023/03/19 15:22:30;;;;;;;;;;;;;;;;;;5075584;28;19966;-72
2023/03/19 15:25:33;;;;;;;;;;;;;;;;;;5075787;28;19919;-71
2023/03/19 15:28:36;;;;;;;;;;;;;;;;;;5075553;28;19919;-71
2023/03/19 15:31:39;;;;;;;;;;;;;;;;;;5075490;28;20016;-72
2023/03/19 15:34:44;;;;;;;;;;;;;;;;;;5075598;28;20338;-71
2023/03/19 15:37:48;;;;;;;;;;;;;;;;;;5075396;28;19959;-72
2023/03/19 15:40:51;;;;;;;;;;;;;;;;;;5075379;28;19935;-72
2023/03/19 15:43:55;;;;;;;;;;;;;;;;;;5075712;28;20000;-71
2023/03/19 15:46:59;;;;;;;;;;;;;;;;;;5075258;28;20006;-71
2023/03/19 15:50:03;;;;;;;;;;;;;;;;;;5075218;28;19919;-72
2023/03/19 15:53:06;;;;;;;;;;;;;;;;;;5074890;28;19931;-73
2023/03/19 15:56:09;;;;;;;;;;;;;;;;;;5075104;28;19919;-72
2023/03/19 15:59:13;;;;;;;;;;;;;;;;;;5075084;28;19970;-73
2023/03/19 16:02:17;;;;;;;;;;;;;;;;;;5074934;28;19919;-72
2023/03/19 16:05:20;;;;;;;;;;;;;;;;;;5074937;28;19919;-73
2023/03/19 16:08:24;;;;;;;;;;;;;;;;;;5075217;28;19919;-72
2023/03/19 16:11:28;;;;;;;;;;;;;;;;;;5097352;28;19919;-73
2023/03/19 16:14:32;;;;;;;;;;;;;;;;;;5074411;28;20054;-72